Time;durP1;ratioP1;P1;durP2;ratioP2;P2;SDS_P1;SDS_P2;PMS_P1;PMS_P2;Temp;Humidity;BMP_temperature;BMP_pressure;BME280_temperature;BME280_humidity;BME280_pressure;Samples;Min_cycle;Max_cycle;Signal;HPM_P1;HPM_P2
2022/02/27 00:00:00;;;;;;;;;10.50;9.00;;;;;-147.17;100.00;59696.56;5015305;28;51237;-61
2022/02/27 00:02:26;;;;;;;;;10.00;9.00;;;;;-147.17;100.00;59696.56;5014829;28;51407;-62
2022/02/27 00:04:51;;;;;;;;;7.00;7.00;;;;;-147.17;100.00;59696.56;5014937;28;51083;-60
2022/02/27 00:07:17;;;;;;;;;10.00;10.00;;;;;-147.17;100.00;59696.56;5014880;28;51034;-62
2022/02/27 00:09:43;;;;;;;;;10.00;10.00;;;;;-147.17;100.00;59696.56;5013638;28;51097;-62
2022/02/27 00:12:08;;;;;;;;;8.50;7.50;;;;;-147.17;100.00;59696.56;5014923;28;50948;-62
2022/02/27 00:14:34;;;;;;;;;12.00;11.00;;;;;-147.17;100.00;59696.56;5014754;28;52099;-62
2022/02/27 00:16:59;;;;;;;;;5.75;5.00;;;;;-147.17;100.00;59696.56;5029751;28;51002;-62
2022/02/27 00:19:24;;;;;;;;;9.00;8.50;;;;;-147.17;100.00;59696.56;5029936;28;51385;-62
2022/02/27 00:21:50;;;;;;;;;10.50;8.00;;;;;-147.17;100.00;59696.56;5015120;28;51047;-61
2022/02/27 00:24:16;;;;;;;;;7.25;7.25;;;;;-147.17;100.00;59696.56;5014321;28;51799;-61
2022/02/27 00:26:42;;;;;;;;;7.00;7.00;;;;;-147.17;100.00;59696.56;5014612;28;51402;-62
2022/02/27 00:29:07;;;;;;;;;9.50;8.75;;;;;-147.17;100.00;59696.56;5014516;28;50978;-62
2022/02/27 00:31:33;;;;;;;;;9.00;9.00;;;;;-147.17;100.00;59696.56;5014537;28;51240;-62
2022/02/27 00:33:58;;;;;;;;;9.00;9.00;;;;;-147.17;100.00;59696.56;5014310;28;52039;-61
2022/02/27 00:36:24;;;;;;;;;9.00;9.00;;;;;-147.17;100.00;59696.56;5014136;28;51013;-62
2022/02/27 00:38:49;;;;;;;;;10.50;9.50;;;;;-147.17;100.00;59696.56;5014655;28;51325;-62
2022/02/27 00:41:14;;;;;;;;;8.00;7.00;;;;;-147.17;100.00;59696.56;5014712;28;51169;-62
2022/02/27 00:43:40;;;;;;;;;8.50;6.00;;;;;-147.17;100.00;59696.56;5013990;28;51835;-62
2022/02/27 00:46:06;;;;;;;;;4.75;4.50;;;;;-147.17;100.00;59696.56;5014082;28;51069;-63
2022/02/27 00:48:32;;;;;;;;;5.75;5.25;;;;;-147.17;100.00;59696.56;5014065;28;51298;-61
2022/02/27 00:50:58;;;;;;;;;7.75;7.75;;;;;-147.17;100.00;59696.56;5014673;28;51107;-61
2022/02/27 00:53:23;;;;;;;;;9.75;8.75;;;;;-147.17;100.00;59696.56;5014135;28;50927;-62
2022/02/27 00:55:49;;;;;;;;;10.25;9.00;;;;;-147.17;100.00;59696.56;5014316;28;51131;-61
2022/02/27 00:58:14;;;;;;;;;9.25;7.25;;;;;-147.17;100.00;59696.56;5014129;28;51176;-61
2022/02/27 01:00:39;;;;;;;;;9.00;8.00;;;;;-147.17;100.00;59696.56;5014829;28;50974;-62
2022/02/27 01:03:05;;;;;;;;;3.75;2.75;;;;;-147.17;100.00;59696.56;5013380;28;52665;-61
2022/02/27 01:05:30;;;;;;;;;9.50;8.00;;;;;-147.17;100.00;59696.56;5014079;28;50954;-61
2022/02/27 01:07:55;;;;;;;;;8.25;8.00;;;;;-147.17;100.00;59696.56;5013759;28;51057;-61
2022/02/27 01:10:21;;;;;;;;;9.00;9.00;;;;;-147.17;100.00;59696.56;5014079;28;50892;-61
2022/02/27 01:12:46;;;;;;;;;11.75;11.25;;;;;-147.17;100.00;59696.56;5013391;28;51215;-61
2022/02/27 01:15:12;;;;;;;;;6.00;6.00;;;;;-147.17;100.00;59696.56;5013960;28;51277;-62
2022/02/27 01:17:37;;;;;;;;;9.25;9.00;;;;;-147.17;100.00;59696.56;5013594;28;51599;-59
2022/02/27 01:20:05;;;;;;;;;9.00;6.25;;;;;-147.17;100.00;59696.56;5012269;28;51110;-64
2022/02/27 01:22:30;;;;;;;;;6.00;6.00;;;;;-147.17;100.00;59696.56;5012993;28;51032;-61
2022/02/27 01:24:56;;;;;;;;;13.75;10.25;;;;;-147.17;100.00;59696.56;5013268;28;51014;-62
2022/02/27 01:27:21;;;;;;;;;13.25;9.50;;;;;-147.17;100.00;59696.56;5013124;28;51523;-61
2022/02/27 01:29:46;;;;;;;;;7.25;6.75;;;;;-147.17;100.00;59696.56;5013405;28;51277;-62
2022/02/27 01:32:12;;;;;;;;;7.00;5.50;;;;;-147.17;100.00;59696.56;5012942;28;51104;-62
2022/02/27 01:34:38;;;;;;;;;8.50;6.00;;;;;-147.17;100.00;59696.56;5014019;28;50956;-61
2022/02/27 01:37:03;;;;;;;;;9.00;7.25;;;;;-147.17;100.00;59696.56;5013809;28;51115;-62
2022/02/27 01:39:29;;;;;;;;;4.00;4.00;;;;;-147.17;100.00;59696.56;5014655;28;51216;-62
2022/02/27 01:41:54;;;;;;;;;7.50;6.00;;;;;-147.17;100.00;59696.56;5014084;28;50932;-62
2022/02/27 01:44:21;;;;;;;;;5.75;3.50;;;;;-147.17;100.00;59696.56;5014280;28;50977;-62
2022/02/27 01:47:01;;;;;;;;;8.50;6.75;;;;;-147.17;100.00;59696.56;5027231;28;51179;-62
2022/02/27 01:49:28;;;;;;;;;4.00;3.25;;;;;-147.17;100.00;59696.56;4995866;28;51201;-61
2022/02/27 01:51:54;;;;;;;;;7.25;7.25;;;;;-147.17;100.00;59696.56;5013374;28;52086;-62
2022/02/27 01:54:20;;;;;;;;;6.75;6.75;;;;;-147.17;100.00;59696.56;5007555;28;50960;-62
2022/02/27 01:56:46;;;;;;;;;6.50;5.50;;;;;-147.17;100.00;59696.56;5013301;28;51177;-62
2022/02/27 01:59:13;;;;;;;;;5.00;5.00;;;;;-147.17;100.00;59696.56;5013665;28;51014;-62
2022/02/27 02:01:38;;;;;;;;;5.50;4.75;;;;;-147.17;100.00;59696.56;5012787;28;52382;-61
2022/02/27 02:04:04;;;;;;;;;8.50;6.75;;;;;-147.17;100.00;59696.56;5013310;28;51175;-62
2022/02/27 02:06:29;;;;;;;;;6.00;6.00;;;;;-147.17;100.00;59696.56;5013172;28;51060;-61
2022/02/27 02:09:05;;;;;;;;;4.25;4.25;;;;;;;;5107335;27;50876;-61
2022/02/27 02:11:31;;;;;;;;;6.50;6.50;;;;;;;;5110656;27;51307;-61
2022/02/27 02:13:56;;;;;;;;;6.00;6.00;;;;;;;;5110646;27;51003;-61
2022/02/27 02:16:21;;;;;;;;;7.25;6.75;;;;;;;;5110319;27;50932;-62
2022/02/27 02:18:46;;;;;;;;;6.00;6.00;;;;;;;;5110648;27;51038;-61
2022/02/27 02:21:11;;;;;;;;;6.00;6.00;;;;;;;;5109435;27;51068;-61
2022/02/27 02:23:37;;;;;;;;;4.00;4.00;;;;;;;;5109339;27;51308;-61
2022/02/27 02:26:03;;;;;;;;;8.75;8.75;;;;;;;;5110157;27;51769;-61
2022/02/27 02:28:28;;;;;;;;;4.25;4.25;;;;;;;;5110548;27;51071;-61
2022/02/27 02:30:53;;;;;;;;;8.00;8.00;;;;;;;;5109936;27;51116;-62
2022/02/27 02:33:18;;;;;;;;;1.50;1.00;;;;;;;;5110503;27;51052;-61
2022/02/27 02:35:45;;;;;;;;;5.75;5.25;;;;;;;;5110110;27;51292;-60
2022/02/27 02:38:10;;;;;;;;;6.00;6.00;;;;;;;;5109917;27;51034;-61
2022/02/27 02:40:36;;;;;;;;;8.00;8.00;;;;;;;;5110399;27;50859;-61
2022/02/27 02:43:01;;;;;;;;;5.50;5.50;;;;;;;;5110273;27;51209;-61
2022/02/27 02:45:26;;;;;;;;;4.50;4.50;;;;;;;;5110186;27;51947;-61
2022/02/27 02:47:51;;;;;;;;;5.50;5.00;;;;;;;;5109873;27;50899;-61
2022/02/27 02:50:18;;;;;;;;;6.50;6.50;;;;;;;;5110233;27;50857;-61
2022/02/27 02:52:43;;;;;;;;;5.00;4.25;;;;;;;;5110083;27;51368;-62
2022/02/27 02:55:13;;;;;;;;;7.00;6.50;;;;;;;;5109829;27;51115;-61
2022/02/27 02:57:39;;;;;;;;;5.00;5.00;;;;;;;;5110028;27;50940;-62
2022/02/27 03:00:05;;;;;;;;;6.00;6.00;;;;;;;;5109840;27;51261;-62
2022/02/27 03:02:30;;;;;;;;;6.00;6.00;;;;;;;;5109884;27;51002;-61
2022/02/27 03:04:56;;;;;;;;;5.50;5.50;;;;;;;;5102695;27;51852;-61
2022/02/27 03:07:21;;;;;;;;;5.25;5.00;;;;;;;;5102593;27;51034;-62
2022/02/27 03:09:46;;;;;;;;;5.50;5.50;;;;;;;;5089568;27;50896;-61
2022/02/27 03:12:12;;;;;;;;;6.00;6.00;;;;;;;;5089560;27;50821;-61
2022/02/27 03:14:37;;;;;;;;;8.00;5.00;;;;;;;;5089246;27;51790;-61
2022/02/27 03:17:02;;;;;;;;;6.00;6.00;;;;;;;;5088824;27;50909;-61
2022/02/27 03:19:27;;;;;;;;;9.75;8.75;;;;;;;;5081260;27;51050;-61
2022/02/27 03:21:52;;;;;;;;;8.00;6.00;;;;;;;;5075647;28;51331;-61
2022/02/27 03:24:18;;;;;;;;;4.50;4.50;;;;;;;;5075326;28;52285;-61
2022/02/27 03:26:45;;;;;;;;;6.00;5.00;;;;;;;;5075435;28;50912;-61
2022/02/27 03:29:10;;;;;;;;;9.00;7.00;;;;;;;;5073950;28;51075;-61
2022/02/27 03:31:36;;;;;;;;;5.75;5.00;;;;;;;;5075151;28;50964;-62
2022/02/27 03:34:01;;;;;;;;;4.75;4.25;;;;;;;;5075042;28;51080;-62
2022/02/27 03:36:26;;;;;;;;;1.00;1.00;;;;;;;;5074042;28;51078;-61
2022/02/27 03:38:52;;;;;;;;;1.00;1.00;;;;;;;;5075374;28;51476;-61
2022/02/27 03:41:17;;;;;;;;;6.00;5.75;;;;;;;;5075424;28;51353;-61
2022/02/27 03:43:42;;;;;;;;;6.00;5.75;;;;;;;;5074973;28;52282;-61
2022/02/27 03:46:08;;;;;;;;;6.00;6.00;;;;;;;;5074904;28;51063;-61
2022/02/27 03:48:33;;;;;;;;;4.00;2.00;;;;;;;;5073639;28;51022;-61
2022/02/27 03:50:58;;;;;;;;;5.25;4.00;;;;;;;;5075432;28;51469;-61
2022/02/27 03:53:24;;;;;;;;;6.00;5.75;;;;;;;;5074782;28;51159;-61
2022/02/27 03:55:49;;;;;;;;;5.00;5.00;;;;;;;;5074897;28;51051;-61
2022/02/27 03:58:15;;;;;;;;;8.00;6.00;;;;;;;;5074807;28;51394;-62
2022/02/27 04:00:40;;;;;;;;;2.00;2.00;;;;;;;;5075230;28;51053;-60
2022/02/27 04:03:05;;;;;;;;;5.00;5.00;;;;;;;;5074063;28;51896;-60
2022/02/27 04:05:30;;;;;;;;;4.50;4.50;;;;;;;;5074906;28;51095;-60
2022/02/27 04:07:58;;;;;;;;;3.50;3.50;;;;;;;;5074354;27;50855;-60
2022/02/27 04:10:23;;;;;;;;;4.50;4.25;;;;;;;;5073586;28;51407;-60
2022/02/27 04:12:48;;;;;;;;;5.25;5.00;;;;;;;;5074389;28;51974;-60
2022/02/27 04:15:13;;;;;;;;;5.50;5.00;;;;;;;;5074741;28;50866;-60
2022/02/27 04:17:38;;;;;;;;;4.00;4.00;;;;;;;;5074092;28;51063;-60
2022/02/27 04:20:04;;;;;;;;;5.25;5.25;;;;;;;;5074645;28;50854;-59
2022/02/27 04:22:29;;;;;;;;;8.75;5.00;;;;;;;;5074041;28;51009;-60
2022/02/27 04:24:55;;;;;;;;;4.75;2.00;;;;;;;;5074628;28;50985;-59
2022/02/27 04:27:20;;;;;;;;;4.00;4.00;;;;;;;;5074612;28;51039;-62
2022/02/27 04:29:45;;;;;;;;;6.00;4.00;;;;;;;;5073315;28;51326;-61
2022/02/27 04:32:11;;;;;;;;;5.25;5.00;;;;;;;;5072658;28;51281;-62
2022/02/27 04:34:36;;;;;;;;;5.75;5.00;;;;;;;;5074714;28;50902;-61
2022/02/27 04:37:01;;;;;;;;;5.00;4.25;;;;;;;;5074303;28;51072;-60
2022/02/27 04:39:27;;;;;;;;;5.50;3.75;;;;;;;;5074770;28;50990;-61
2022/02/27 04:41:52;;;;;;;;;4.50;4.50;;;;;;;;5073902;28;50990;-61
2022/02/27 04:44:17;;;;;;;;;5.25;5.00;;;;;;;;5074326;28;50992;-62
2022/02/27 04:46:42;;;;;;;;;4.00;4.00;;;;;;;;5073874;28;51065;-60
2022/02/27 04:49:07;;;;;;;;;2.00;2.00;;;;;;;;5074442;28;51364;-60
2022/02/27 04:51:33;;;;;;;;;4.50;3.50;;;;;;;;5073767;28;51937;-61
2022/02/27 04:53:58;;;;;;;;;1.50;1.00;;;;;;;;5073968;28;50961;-60
2022/02/27 04:56:23;;;;;;;;;4.75;4.00;;;;;;;;5073745;27;51045;-60
2022/02/27 04:58:48;;;;;;;;;5.00;5.00;;;;;;;;5074249;28;51347;-61
2022/02/27 05:01:14;;;;;;;;;5.50;4.50;;;;;;;;5072082;28;51689;-61
2022/02/27 05:03:39;;;;;;;;;5.75;5.75;;;;;;;;5073995;28;51138;-61
2022/02/27 05:06:04;;;;;;;;;4.00;4.00;;;;;;;;5073661;28;51597;-61
2022/02/27 05:08:30;;;;;;;;;6.00;5.75;;;;;;;;5072566;27;51329;-61
2022/02/27 05:10:55;;;;;;;;;4.75;4.00;;;;;;;;5073477;28;52132;-60
2022/02/27 05:13:20;;;;;;;;;4.00;4.00;;;;;;;;5073679;28;50881;-60
2022/02/27 05:15:45;;;;;;;;;4.00;4.00;;;;;;;;5073278;28;51260;-60
2022/02/27 05:18:10;;;;;;;;;5.00;5.00;;;;;;;;5073935;28;50844;-60
2022/02/27 05:20:36;;;;;;;;;4.25;4.25;;;;;;;;5073057;27;51091;-61
2022/02/27 05:23:01;;;;;;;;;5.25;5.25;;;;;;;;5073783;28;51089;-60
2022/02/27 05:25:26;;;;;;;;;6.50;5.00;;;;;;;;5073526;28;51381;-60
2022/02/27 05:27:52;;;;;;;;;5.00;5.00;;;;;;;;5073605;28;51337;-61
2022/02/27 05:30:21;;;;;;;;;6.00;5.00;;;;;;;;5073161;28;51986;-60
2022/02/27 05:32:47;;;;;;;;;4.50;4.50;;;;;;;;5073139;28;51118;-60
2022/02/27 05:35:12;;;;;;;;;6.00;6.00;;;;;;;;5073299;28;51259;-60
2022/02/27 05:37:37;;;;;;;;;5.75;5.50;;;;;;;;5073514;28;51195;-61
2022/02/27 05:40:04;;;;;;;;;4.75;4.00;;;;;;;;5073104;28;52161;-60
2022/02/27 05:42:29;;;;;;;;;4.00;4.00;;;;;;;;5072986;28;51028;-60
2022/02/27 05:44:54;;;;;;;;;4.00;4.00;;;;;;;;5073155;28;50938;-60
2022/02/27 05:47:19;;;;;;;;;6.00;5.00;;;;;;;;5073439;28;51389;-61
2022/02/27 05:49:45;;;;;;;;;4.00;4.00;;;;;;;;5073032;28;50994;-61
2022/02/27 05:52:10;;;;;;;;;4.50;4.25;;;;;;;;5073202;28;50868;-61
2022/02/27 05:54:35;;;;;;;;;6.25;6.25;;;;;;;;5073015;28;51093;-61
2022/02/27 05:57:00;;;;;;;;;5.00;5.00;;;;;;;;5073161;28;51103;-61
2022/02/27 05:59:26;;;;;;;;;6.00;4.75;;;;;;;;5072624;28;51290;-61
2022/02/27 06:01:51;;;;;;;;;4.50;4.50;;;;;;;;5072926;28;51195;-60
2022/02/27 06:04:16;;;;;;;;;8.00;6.00;;;;;;;;5072890;28;50897;-61
2022/02/27 06:06:42;;;;;;;;;4.75;3.00;;;;;;;;5072927;27;51357;-61
2022/02/27 06:09:07;;;;;;;;;6.00;5.00;;;;;;;;5072638;28;52377;-61
2022/02/27 06:11:32;;;;;;;;;5.50;4.75;;;;;;;;5072836;28;51115;-61
2022/02/27 06:13:58;;;;;;;;;5.00;5.00;;;;;;;;5072959;28;51030;-61
2022/02/27 06:16:23;;;;;;;;;3.50;3.50;;;;;;;;5072899;28;50763;-60
2022/02/27 06:18:48;;;;;;;;;11.00;4.75;;;;;;;;5072396;28;52128;-61
2022/02/27 06:21:13;;;;;;;;;4.75;4.00;;;;;;;;5072489;28;50887;-61
2022/02/27 06:23:39;;;;;;;;;3.00;1.75;;;;;;;;5072840;28;51051;-61
2022/02/27 06:26:04;;;;;;;;;4.75;4.25;;;;;;;;5073009;28;51378;-61
2022/02/27 06:28:29;;;;;;;;;3.50;3.50;;;;;;;;5072606;28;51968;-61
2022/02/27 06:30:54;;;;;;;;;5.50;5.00;;;;;;;;5072433;28;51024;-61
2022/02/27 06:33:19;;;;;;;;;4.50;4.00;;;;;;;;5072717;28;50931;-61
2022/02/27 06:35:45;;;;;;;;;4.50;4.50;;;;;;;;5072738;27;51084;-61
2022/02/27 06:38:10;;;;;;;;;4.00;4.00;;;;;;;;5072142;28;51102;-61
2022/02/27 06:40:35;;;;;;;;;4.00;4.00;;;;;;;;5072519;27;51195;-61
2022/02/27 06:43:04;;;;;;;;;5.75;4.50;;;;;;;;5072721;27;51066;-61
2022/02/27 06:45:30;;;;;;;;;4.00;2.00;;;;;;;;5072822;27;51209;-61
2022/02/27 06:47:55;;;;;;;;;4.25;3.50;;;;;;;;5072092;27;51756;-60
2022/02/27 06:50:21;;;;;;;;;2.00;1.00;;;;;;;;5054174;28;51089;-61
2022/02/27 06:52:46;;;;;;;;;1.25;1.25;;;;;;;;5072405;27;51004;-60
2022/02/27 06:55:15;;;;;;;;;7.00;4.25;;;;;;;;5074982;27;50973;-61
2022/02/27 06:57:40;;;;;;;;;4.00;3.50;;;;;;;;5073911;28;52165;-61
2022/02/27 07:00:06;;;;;;;;;6.25;6.25;;;;;;;;5074357;28;51084;-61
2022/02/27 07:02:31;;;;;;;;;4.00;4.00;;;;;;;;5074202;28;51216;-61
2022/02/27 07:04:56;;;;;;;;;4.75;4.00;;;;;;;;5075951;28;51448;-61
2022/02/27 07:07:21;;;;;;;;;8.75;5.75;;;;;;;;5073973;28;52773;-62
2022/02/27 07:09:47;;;;;;;;;2.00;2.00;;;;;;;;5075823;28;51245;-62
2022/02/27 07:12:12;;;;;;;;;4.00;4.00;;;;;;;;5075649;28;51028;-61
2022/02/27 07:14:39;;;;;;;;;4.00;4.00;;;;;;;;5075956;28;51035;-62
2022/02/27 07:17:04;;;;;;;;;6.25;5.00;;;;;;;;5075037;28;52166;-62
2022/02/27 07:19:29;;;;;;;;;4.75;3.50;;;;;;;;5074311;28;51038;-60
2022/02/27 07:21:55;;;;;;;;;4.00;4.00;;;;;;;;5075839;27;51027;-60
2022/02/27 07:24:20;;;;;;;;;4.25;4.00;;;;;;;;5074357;28;51390;-62
2022/02/27 07:26:45;;;;;;;;;5.00;4.25;;;;;;;;5075515;28;52196;-61
2022/02/27 07:29:11;;;;;;;;;4.00;4.00;;;;;;;;5075521;28;51005;-62
2022/02/27 07:31:36;;;;;;;;;4.00;4.00;;;;;;;;5075533;28;50942;-61
2022/02/27 07:34:02;;;;;;;;;3.00;2.00;;;;;;;;5075594;28;50970;-62
2022/02/27 07:36:27;;;;;;;;;5.00;4.00;;;;;;;;5075129;28;51024;-62
2022/02/27 07:38:53;;;;;;;;;5.00;4.00;;;;;;;;5074857;28;50985;-62
2022/02/27 07:41:18;;;;;;;;;4.00;4.00;;;;;;;;5075408;28;50834;-62
2022/02/27 07:43:43;;;;;;;;;5.00;4.00;;;;;;;;5075057;28;51078;-62
2022/02/27 07:46:08;;;;;;;;;4.75;4.75;;;;;;;;5074504;28;50966;-62
2022/02/27 07:48:33;;;;;;;;;5.25;4.25;;;;;;;;5075075;28;50907;-62
2022/02/27 07:51:00;;;;;;;;;4.00;2.50;;;;;;;;5074925;28;50826;-62
2022/02/27 07:53:25;;;;;;;;;4.00;2.00;;;;;;;;5073722;28;51202;-62
2022/02/27 07:55:50;;;;;;;;;5.25;5.25;;;;;;;;5074619;27;51026;-62
2022/02/27 07:58:15;;;;;;;;;4.50;4.50;;;;;;;;5074431;28;50992;-62
2022/02/27 08:00:41;;;;;;;;;4.25;4.00;;;;;;;;5074657;28;51017;-62
2022/02/27 08:03:08;;;;;;;;;7.75;3.00;;;;;;;;5074609;28;50876;-62
2022/02/27 08:05:34;;;;;;;;;4.25;4.25;;;;;;;;5074723;28;51191;-62
2022/02/27 08:07:59;;;;;;;;;6.00;6.00;;;;;;;;5073992;27;51067;-62
2022/02/27 08:10:25;;;;;;;;;2.50;2.00;;;;;;;;5074958;27;51153;-62
2022/02/27 08:12:50;;;;;;;;;3.25;3.25;;;;;;;;5074813;28;51144;-62
2022/02/27 08:15:16;;;;;;;;;4.00;4.00;;;;;;;;5074340;28;51820;-60
2022/02/27 08:17:42;;;;;;;;;4.00;3.00;;;;;;;;5073850;28;51182;-61
2022/02/27 08:20:08;;;;;;;;;5.75;5.75;;;;;;;;5074593;28;50866;-61
2022/02/27 08:22:33;;;;;;;;;3.25;3.25;;;;;;;;5074515;28;50877;-61
2022/02/27 08:24:58;;;;;;;;;4.50;4.50;;;;;;;;5074279;28;50969;-61
2022/02/27 08:27:23;;;;;;;;;2.50;2.00;;;;;;;;5074284;28;51122;-61
2022/02/27 08:29:51;;;;;;;;;4.25;4.25;;;;;;;;5074253;27;51103;-62
2022/02/27 08:32:16;;;;;;;;;4.00;4.00;;;;;;;;5073761;28;51072;-61
2022/02/27 08:34:42;;;;;;;;;8.00;6.00;;;;;;;;5074092;28;51100;-62
2022/02/27 08:37:07;;;;;;;;;5.33;4.67;;;;;;;;5073626;28;50937;-61
2022/02/27 08:39:34;;;;;;;;;5.00;5.00;;;;;;;;5074185;28;50885;-62
2022/02/27 08:42:01;;;;;;;;;5.00;4.00;;;;;;;;5074039;27;50996;-62
2022/02/27 08:44:28;;;;;;;;;2.00;2.00;;;;;;;;5073857;28;52305;-62
2022/02/27 08:46:53;;;;;;;;;5.33;4.33;;;;;;;;5073477;28;50966;-62
2022/02/27 08:49:18;;;;;;;;;5.00;4.33;;;;;;;;5073723;28;50987;-62
2022/02/27 08:51:45;;;;;;;;;5.00;5.00;;;;;;;;5072860;28;51439;-62
2022/02/27 08:54:10;;;;;;;;;4.00;4.00;;;;;;;;5071937;28;52775;-62
2022/02/27 08:56:36;;;;;;;;;5.67;4.00;;;;;;;;5073573;27;51108;-64
2022/02/27 08:59:01;;;;;;;;;7.67;4.67;;;;;;;;5073826;28;51131;-61
2022/02/27 09:01:26;;;;;;;;;2.67;2.67;;;;;;;;5073413;28;51327;-61
2022/02/27 09:03:51;;;;;;;;;4.00;3.00;;;;;;;;5059867;28;50999;-62
2022/02/27 09:06:16;;;;;;;;;5.33;4.00;;;;;;;;5067486;28;51117;-61
2022/02/27 09:08:42;;;;;;;;;4.33;4.33;;;;;;;;5070428;27;51412;-61
2022/02/27 09:11:07;;;;;;;;;6.00;5.00;;;;;;;;5072794;27;51212;-62
2022/02/27 09:13:33;;;;;;;;;6.00;4.00;;;;;;;;5072415;28;51301;-62
2022/02/27 09:16:00;;;;;;;;;6.00;5.33;;;;;;;;5072683;28;51032;-62
2022/02/27 09:18:26;;;;;;;;;4.67;4.67;;;;;;;;5071590;28;52042;-61
2022/02/27 09:20:51;;;;;;;;;5.00;5.00;;;;;;;;5071248;27;51164;-61
2022/02/27 09:23:16;;;;;;;;;4.00;4.00;;;;;;;;5070578;28;53701;-61
2022/02/27 09:25:41;;;;;;;;;5.00;5.00;;;;;;;;5072366;28;51108;-61
2022/02/27 09:28:07;;;;;;;;;6.67;6.00;;;;;;;;5072697;28;51108;-62
2022/02/27 09:30:32;;;;;;;;;4.00;4.00;;;;;;;;5072047;28;51197;-62
2022/02/27 09:32:57;;;;;;;;;5.00;5.00;;;;;;;;5072458;28;51401;-62
2022/02/27 09:35:28;;;;;;;;;4.00;3.67;;;;;;;;5070284;28;51127;-62
2022/02/27 09:37:54;;;;;;;;;4.00;2.00;;;;;;;;5071882;28;50936;-62
2022/02/27 09:40:20;;;;;;;;;5.00;4.67;;;;;;;;5071969;27;51982;-62
2022/02/27 09:42:45;;;;;;;;;3.00;3.00;;;;;;;;5071710;28;51204;-62
2022/02/27 09:45:10;;;;;;;;;4.00;4.00;;;;;;;;5071930;27;51206;-62
2022/02/27 09:47:35;;;;;;;;;4.00;4.00;;;;;;;;5072655;27;50898;-60
2022/02/27 09:50:01;;;;;;;;;3.33;3.00;;;;;;;;5072639;27;51374;-61
2022/02/27 09:52:27;;;;;;;;;5.33;5.00;;;;;;;;5071189;28;52643;-61
2022/02/27 09:54:52;;;;;;;;;5.67;5.00;;;;;;;;5072366;27;51183;-61
2022/02/27 09:57:19;;;;;;;;;7.00;6.00;;;;;;;;5072867;28;50832;-61
2022/02/27 09:59:44;;;;;;;;;5.67;5.33;;;;;;;;5072650;28;51119;-61
2022/02/27 10:02:09;;;;;;;;;5.00;5.00;;;;;;;;5070838;27;51958;-61
2022/02/27 10:04:36;;;;;;;;;4.33;4.00;;;;;;;;5072549;28;51929;-62
2022/02/27 10:07:06;;;;;;;;;4.00;4.00;;;;;;;;5072308;28;50987;-62
2022/02/27 10:09:31;;;;;;;;;4.67;4.67;;;;;;;;5072682;28;50927;-62
2022/02/27 10:12:11;;;;;;;;;5.00;5.00;;;;;;;;5070816;28;52337;-62
2022/02/27 10:14:36;;;;;;;;;5.00;5.00;;;;;;;;5072537;28;51058;-62
2022/02/27 10:17:03;;;;;;;;;10.00;10.00;;;;;;;;5072261;28;51050;-63
2022/02/27 10:19:28;;;;;;;;;6.67;6.00;;;;;;;;5072331;28;51135;-61
2022/02/27 10:21:53;;;;;;;;;4.33;4.33;;;;;;;;5071688;28;51163;-62
2022/02/27 10:24:19;;;;;;;;;7.00;7.00;;;;;;;;5071920;28;51015;-61
2022/02/27 10:26:45;;;;;;;;;7.67;6.33;;;;;;;;5071999;28;51075;-61
2022/02/27 10:29:12;;;;;;;;;6.00;5.00;;;;;;;;5072987;28;51382;-61
2022/02/27 10:31:39;;;;;;;;;8.33;7.33;;;;;;;;5075046;28;51826;-61
2022/02/27 10:34:11;;;;;;;;;5.33;5.33;;;;;;;;5073892;28;51016;-61
2022/02/27 10:36:37;;;;;;;;;5.33;5.33;;;;;;;;5075555;27;51091;-61
2022/02/27 10:39:03;;;;;;;;;7.00;6.33;;;;;;;;5075861;28;51369;-61
2022/02/27 10:41:36;;;;;;;;;5.00;4.33;;;;;;;;5074853;28;51219;-61
2022/02/27 10:44:01;;;;;;;;;3.00;3.00;;;;;;;;5075251;28;50988;-62
2022/02/27 10:46:29;;;;;;;;;5.00;4.00;;;;;;;;5074897;28;50798;-62
2022/02/27 10:48:54;;;;;;;;;3.67;3.00;;;;;;;;5075691;28;50961;-61
2022/02/27 10:51:20;;;;;;;;;8.00;6.00;;;;;;;;5073584;28;51233;-61
2022/02/27 10:53:46;;;;;;;;;6.67;6.00;;;;;;;;5074689;28;51193;-61
2022/02/27 10:56:12;;;;;;;;;7.00;7.00;;;;;;;;5075062;28;50985;-61
2022/02/27 10:58:42;;;;;;;;;6.00;6.00;;;;;;;;5073706;28;51336;-61
2022/02/27 11:01:18;;;;;;;;;7.00;5.33;;;;;;;;5074083;28;52249;-62
2022/02/27 11:03:43;;;;;;;;;3.67;3.00;;;;;;;;5074879;28;51042;-61
2022/02/27 11:06:09;;;;;;;;;5.33;4.67;;;;;;;;5073785;28;51059;-61
2022/02/27 11:08:34;;;;;;;;;6.00;6.00;;;;;;;;5073714;27;53319;-61
2022/02/27 11:11:00;;;;;;;;;6.67;5.00;;;;;;;;5074158;28;51965;-61
2022/02/27 11:13:25;;;;;;;;;7.00;6.67;;;;;;;;5074516;28;51031;-60
2022/02/27 11:15:51;;;;;;;;;9.00;7.00;;;;;;;;5074386;28;51061;-61
2022/02/27 11:18:16;;;;;;;;;7.00;6.33;;;;;;;;5074650;28;51115;-61
2022/02/27 11:20:42;;;;;;;;;8.00;7.00;;;;;;;;5074009;28;52430;-61
2022/02/27 11:23:07;;;;;;;;;7.00;6.00;;;;;;;;5074533;28;51049;-61
2022/02/27 11:25:32;;;;;;;;;7.00;7.00;;;;;;;;5073164;28;51039;-61
2022/02/27 11:28:24;;;;;;;;;6.00;6.00;;;;;;;;5073467;28;51117;-61
2022/02/27 11:30:51;;;;;;;;;5.00;5.00;;;;;;;;5069245;27;53238;-61
2022/02/27 11:33:23;;;;;;;;;6.00;6.00;;;;;;;;5074187;27;51075;-61
2022/02/27 11:35:49;;;;;;;;;6.33;6.33;;;;;;;;5074250;28;51235;-61
2022/02/27 11:38:18;;;;;;;;;7.00;7.00;;;;;;;;5073793;27;51066;-61
2022/02/27 11:40:43;;;;;;;;;7.00;5.67;;;;;;;;5071891;27;51808;-61
2022/02/27 11:43:08;;;;;;;;;6.33;6.33;;;;;;;;5073312;27;51009;-61
2022/02/27 11:45:34;;;;;;;;;5.00;5.00;;;;;;;;5073859;28;51273;-61
2022/02/27 11:47:59;;;;;;;;;7.33;6.67;;;;;;;;5074257;28;50952;-61
2022/02/27 11:50:34;;;;;;;;;10.00;8.00;;;;;;;;5073899;28;52049;-61
2022/02/27 11:52:59;;;;;;;;;5.00;5.00;;;;;;;;5069390;28;51144;-61
2022/02/27 11:55:44;;;;;;;;;5.67;5.67;;;;;;;;5073727;28;51097;-61
2022/02/27 11:58:22;;;;;;;;;9.00;9.00;;;;;;;;5072667;28;51135;-61
2022/02/27 12:00:47;;;;;;;;;7.00;7.00;;;;;;;;5073046;28;52911;-61
2022/02/27 12:03:42;;;;;;;;;7.00;7.00;;;;;;;;5073291;28;50896;-62
2022/02/27 12:06:08;;;;;;;;;8.00;8.00;;;;;;;;5064208;28;50919;-61
2022/02/27 12:08:40;;;;;;;;;6.00;6.00;;;;;;;;5073593;27;51443;-62
2022/02/27 12:11:25;;;;;;;;;7.33;5.00;;;;;;;;5072958;28;52149;-61
2022/02/27 12:13:54;;;;;;;;;8.33;8.00;;;;;;;;5070843;27;51235;-61
2022/02/27 12:16:33;;;;;;;;;7.33;7.33;;;;;;;;5071636;28;51079;-61
2022/02/27 12:18:58;;;;;;;;;10.33;7.00;;;;;;;;5073201;28;50984;-61
2022/02/27 12:21:37;;;;;;;;;9.33;9.00;;;;;;;;5073400;28;52099;-61
2022/02/27 12:24:09;;;;;;;;;8.00;8.00;;;;;;;;5073104;28;51079;-61
2022/02/27 12:26:36;;;;;;;;;8.33;7.00;;;;;;;;5073235;27;51075;-61
2022/02/27 12:29:02;;;;;;;;;9.33;9.33;;;;;;;;5073160;27;51316;-62
2022/02/27 12:31:32;;;;;;;;;8.67;8.67;;;;;;;;5071121;28;52205;-60
2022/02/27 12:33:58;;;;;;;;;6.00;5.67;;;;;;;;5072669;28;51061;-61
2022/02/27 12:36:29;;;;;;;;;10.25;8.75;;;;;;;;5072598;28;50892;-61
2022/02/27 12:38:59;;;;;;;;;9.75;9.75;;;;;;;;5071704;28;51236;-61
2022/02/27 12:41:32;;;;;;;;;9.50;9.50;;;;;;;;5072191;28;51226;-61
2022/02/27 12:43:58;;;;;;;;;6.33;6.33;;;;;;;;5072767;28;51143;-61
2022/02/27 12:46:23;;;;;;;;;7.00;7.00;;;;;;;;5072237;28;51083;-62
2022/02/27 12:51:33;;;;;;;;;9.25;8.50;;;;;;;;5071147;28;51375;-63
2022/02/27 12:53:59;;;;;;;;;9.25;9.25;;;;;;;;5072361;28;51295;-61
2022/02/27 12:56:25;;;;;;;;;10.67;10.67;;;;;;;;5072236;27;51112;-62
2022/02/27 12:58:52;;;;;;;;;9.00;7.67;;;;;;;;5072761;28;50927;-61
2022/02/27 13:01:17;;;;;;;;;7.75;6.25;;;;;;;;5071898;28;51130;-62
2022/02/27 13:03:42;;;;;;;;;10.50;9.00;;;;;;;;5070714;28;50958;-61
2022/02/27 13:06:08;;;;;;;;;4.00;4.00;;;;;;;;5072342;28;51143;-62
2022/02/27 13:08:33;;;;;;;;;10.00;10.00;;;;;;;;5071963;27;51089;-61
2022/02/27 13:10:58;;;;;;;;;9.50;9.50;;;;;;;;5070538;28;53838;-62
2022/02/27 13:13:23;;;;;;;;;10.25;9.50;;;;;;;;5072418;28;50901;-62
2022/02/27 13:15:56;;;;;;;;;10.50;10.00;;;;;;;;5071401;28;50904;-60
2022/02/27 13:18:22;;;;;;;;;9.00;9.00;;;;;;;;5070983;28;51367;-62
2022/02/27 13:20:47;;;;;;;;;12.25;9.00;;;;;;;;5071553;28;51137;-62
2022/02/27 13:23:13;;;;;;;;;10.50;9.00;;;;;;;;5071919;28;50954;-65
2022/02/27 13:25:39;;;;;;;;;8.75;8.25;;;;;;;;5072188;28;51018;-62
2022/02/27 13:28:04;;;;;;;;;9.00;9.00;;;;;;;;5066490;27;51262;-61
2022/02/27 13:30:30;;;;;;;;;5.00;5.00;;;;;;;;5070986;28;52134;-62
2022/02/27 13:32:56;;;;;;;;;6.75;6.75;;;;;;;;5070266;28;51256;-61
2022/02/27 13:35:27;;;;;;;;;11.25;10.25;;;;;;;;5069151;27;50980;-61
2022/02/27 13:37:58;;;;;;;;;9.50;8.75;;;;;;;;5069243;28;51257;-62
2022/02/27 13:40:26;;;;;;;;;8.75;8.25;;;;;;;;5070859;28;53194;-62
2022/02/27 13:42:53;;;;;;;;;9.00;8.00;;;;;;;;5068684;28;51218;-61
2022/02/27 13:45:32;;;;;;;;;8.50;8.50;;;;;;;;5070608;27;51106;-62
2022/02/27 13:47:59;;;;;;;;;10.25;8.50;;;;;;;;5070339;28;51146;-63
2022/02/27 13:50:25;;;;;;;;;11.00;10.75;;;;;;;;5070892;27;50975;-62
2022/02/27 13:53:01;;;;;;;;;8.00;8.00;;;;;;;;5070321;27;51173;-62
2022/02/27 13:55:28;;;;;;;;;10.00;9.50;;;;;;;;5069209;28;51260;-62